Time;durP1;ratioP1;P1;durP2;ratioP2;P2;SDS_P1;SDS_P2;PMS_P1;PMS_P2;Temp;Humidity;BMP_temperature;BMP_pressure;BME280_temperature;BME280_humidity;BME280_pressure;Samples;Min_cycle;Max_cycle;Signal;HPM_P1;HPM_P2
2023/04/01 00:59:22;;;;;;;;;;;;;;;;;;6160379;23;19931;-92
2023/04/01 01:01:49;;;;;;;;;;;;;;;;;;6187361;23;19924;-92
2023/04/01 01:04:36;;;;;;;;;;;;;;;;;;6216024;23;19927;-93
2023/04/01 01:07:08;;;;;;;;;;;;;;;;;;6215554;23;19904;-93
2023/04/01 01:09:36;;;;;;;;;;;;;;;;;;6189898;23;19944;-92
2023/04/01 01:41:16;;;;;;;;;;;;;;;;;;6194013;23;19954;-92
2023/04/01 01:43:51;;;;;;;;;;;;;;;;;;6189972;23;19960;-88
2023/04/01 01:46:30;;;;;;;;;;;;;;;;;;6189847;23;19912;-88
2023/04/01 01:49:11;;;;;;;;;;;;;;;;;;6157364;23;19905;-88
2023/04/01 01:51:47;;;;;;;;;;;;;;;;;;6215100;23;19904;-88
2023/04/01 01:54:42;;;;;;;;;;;;;;;;;;6189518;23;19911;-89
2023/04/01 01:57:08;;;;;;;;;;;;;;;;;;6189290;23;19912;-88
2023/04/01 01:59:34;;;;;;;;;;;;;;;;;;6211083;23;19931;-89
2023/04/01 02:02:07;;;;;;;;;;;;;;;;;;6188986;23;19920;-88
2023/04/01 02:04:56;;;;;;;;;;;;;;;;;;6210415;23;19920;-89
2023/04/01 02:07:22;;;;;;;;;;;;;;;;;;6189951;23;19944;-88
2023/04/01 02:49:22;;;;;;;;;;;;;;;;;;6214048;23;19935;-91
2023/04/01 02:51:52;;;;;;;;;;;;;;;;;;6214168;23;19956;-91
2023/04/01 02:54:20;;;;;;;;;;;;;;;;;;6163943;23;19904;-92
2023/04/01 02:57:01;;;;;;;;;;;;;;;;;;6186628;23;19921;-92
2023/04/01 02:59:31;;;;;;;;;;;;;;;;;;6188536;23;19970;-92
2023/04/01 03:27:59;;;;;;;;;;;;;;;;;;6222677;23;19963;-93
2023/04/01 03:30:26;;;;;;;;;;;;;;;;;;6193096;23;19920;-93
2023/04/01 03:32:57;;;;;;;;;;;;;;;;;;6217471;23;19916;-92
2023/04/01 03:35:35;;;;;;;;;;;;;;;;;;6194121;23;19926;-92
2023/04/01 03:38:03;;;;;;;;;;;;;;;;;;6193504;23;19916;-92
2023/04/01 03:40:45;;;;;;;;;;;;;;;;;;6242629;23;19968;-92
2023/04/01 03:43:30;;;;;;;;;;;;;;;;;;6222078;23;19899;-92
2023/04/01 03:45:57;;;;;;;;;;;;;;;;;;6218174;23;19911;-92
2023/04/01 03:48:44;;;;;;;;;;;;;;;;;;6244358;23;19907;-92
2023/04/01 03:51:48;;;;;;;;;;;;;;;;;;6244206;23;19902;-93
2023/04/01 03:54:29;;;;;;;;;;;;;;;;;;6195109;23;19963;-93
2023/04/01 03:57:08;;;;;;;;;;;;;;;;;;6212897;23;19904;-93
2023/04/01 03:59:47;;;;;;;;;;;;;;;;;;6206479;23;19942;-92
2023/04/01 04:02:22;;;;;;;;;;;;;;;;;;6220757;23;19924;-92
2023/04/01 04:05:06;;;;;;;;;;;;;;;;;;6241072;23;19900;-92
2023/04/01 04:07:46;;;;;;;;;;;;;;;;;;6230920;23;19904;-92
2023/04/01 04:10:15;;;;;;;;;;;;;;;;;;6193186;23;19974;-94
2023/04/01 04:12:44;;;;;;;;;;;;;;;;;;6193158;23;19920;-95
2023/04/01 04:15:16;;;;;;;;;;;;;;;;;;6193847;23;19923;-93
2023/04/01 04:17:45;;;;;;;;;;;;;;;;;;6221049;23;19908;-93
2023/04/01 05:09:46;;;;;;;;;;;;;;;;;;6178161;23;20064;-92
2023/04/01 05:12:15;;;;;;;;;;;;;;;;;;6189018;23;19904;-94
2023/04/01 05:15:10;;;;;;;;;;;;;;;;;;6211973;23;19911;-94
2023/04/01 05:17:37;;;;;;;;;;;;;;;;;;6189103;23;19924;-93
2023/04/01 06:09:25;;;;;;;;;;;;;;;;;;6199706;23;19919;-93
2023/04/01 06:53:29;;;;;;;;;;;;;;;;;;6175795;23;20007;-92
2023/04/01 06:58:31;;;;;;;;;;;;;;;;;;6196417;23;19916;-93
2023/04/01 07:14:16;;;;;;;;;;;;;;;;;;6204852;23;20231;-93
2023/04/01 07:16:42;;;;;;;;;;;;;;;;;;6174610;23;19935;-93
2023/04/01 07:19:08;;;;;;;;;;;;;;;;;;6175133;23;19915;-94
2023/04/01 07:21:35;;;;;;;;;;;;;;;;;;6177168;23;19915;-93
2023/04/01 07:24:15;;;;;;;;;;;;;;;;;;6193160;23;19957;-93
2023/04/01 07:26:43;;;;;;;;;;;;;;;;;;6192927;23;19920;-92
2023/04/01 07:31:45;;;;;;;;;;;;;;;;;;6171124;23;19920;-93
2023/04/01 07:34:11;;;;;;;;;;;;;;;;;;6174570;23;19946;-93
2023/04/01 07:36:37;;;;;;;;;;;;;;;;;;6174396;23;19935;-93
2023/04/01 07:39:03;;;;;;;;;;;;;;;;;;6173908;23;19974;-93
2023/04/01 07:41:29;;;;;;;;;;;;;;;;;;6173796;23;19916;-93
2023/04/01 07:43:55;;;;;;;;;;;;;;;;;;6174001;23;19916;-92
2023/04/01 07:46:21;;;;;;;;;;;;;;;;;;6174311;23;19919;-93
2023/04/01 07:48:47;;;;;;;;;;;;;;;;;;6173881;23;19920;-93
2023/04/01 07:51:13;;;;;;;;;;;;;;;;;;6174459;23;19966;-94
2023/04/01 07:53:39;;;;;;;;;;;;;;;;;;6174630;23;19920;-93
2023/04/01 07:56:05;;;;;;;;;;;;;;;;;;6174061;23;20409;-94
2023/04/01 07:58:31;;;;;;;;;;;;;;;;;;6175149;23;19916;-94
2023/04/01 08:00:57;;;;;;;;;;;;;;;;;;6173438;23;19919;-93
2023/04/01 08:03:22;;;;;;;;;;;;;;;;;;6174088;23;19916;-93
2023/04/01 08:05:48;;;;;;;;;;;;;;;;;;6198811;23;19916;-94
2023/04/01 08:08:15;;;;;;;;;;;;;;;;;;6173775;23;19916;-94
2023/04/01 08:10:40;;;;;;;;;;;;;;;;;;6197862;23;19916;-93
2023/04/01 08:13:06;;;;;;;;;;;;;;;;;;6173941;23;19994;-95
2023/04/01 08:15:32;;;;;;;;;;;;;;;;;;6174535;23;19968;-93
2023/04/01 08:17:58;;;;;;;;;;;;;;;;;;6173890;23;19916;-94
2023/04/01 08:20:24;;;;;;;;;;;;;;;;;;6173437;23;19931;-93
2023/04/01 08:22:50;;;;;;;;;;;;;;;;;;6174186;23;19927;-94
2023/04/01 08:25:16;;;;;;;;;;;;;;;;;;6173749;23;20338;-93
2023/04/01 08:27:42;;;;;;;;;;;;;;;;;;6173429;23;19971;-93
2023/04/01 08:30:08;;;;;;;;;;;;;;;;;;6173568;23;19987;-93
2023/04/01 08:32:37;;;;;;;;;;;;;;;;;;6205960;23;19916;-93
2023/04/01 08:35:26;;;;;;;;;;;;;;;;;;6243502;23;20188;-94
2023/04/01 08:38:25;;;;;;;;;;;;;;;;;;6242557;23;19927;-93
2023/04/01 08:40:51;;;;;;;;;;;;;;;;;;6192278;23;19940;-93
2023/04/01 08:43:17;;;;;;;;;;;;;;;;;;6215544;23;19946;-93
2023/04/01 08:45:52;;;;;;;;;;;;;;;;;;6219237;23;19908;-93
2023/04/01 08:48:20;;;;;;;;;;;;;;;;;;6191684;23;19908;-93
2023/04/01 08:51:08;;;;;;;;;;;;;;;;;;6237527;23;19908;-94
2023/04/01 08:53:43;;;;;;;;;;;;;;;;;;6217141;23;19908;-92
2023/04/01 08:56:24;;;;;;;;;;;;;;;;;;6208256;23;19916;-93
2023/04/01 08:58:53;;;;;;;;;;;;;;;;;;6186814;23;19926;-93
2023/04/01 09:01:23;;;;;;;;;;;;;;;;;;6215785;23;19960;-93
2023/04/01 09:04:05;;;;;;;;;;;;;;;;;;6190397;23;19904;-93
2023/04/01 09:09:14;;;;;;;;;;;;;;;;;;6201013;23;19920;-94
2023/04/01 09:11:56;;;;;;;;;;;;;;;;;;6189438;23;19923;-93
2023/04/01 09:14:48;;;;;;;;;;;;;;;;;;6215207;23;19964;-93
2023/04/01 09:17:20;;;;;;;;;;;;;;;;;;6189433;23;19908;-93
2023/04/01 09:38:10;;;;;;;;;;;;;;;;;;6194779;23;19979;-94
2023/04/01 09:40:37;;;;;;;;;;;;;;;;;;6147683;23;19949;-94
2023/04/01 09:56:59;;;;;;;;;;;;;;;;;;6227547;23;19911;-95
2023/04/01 09:59:29;;;;;;;;;;;;;;;;;;6245050;23;19934;-94
2023/04/01 10:01:58;;;;;;;;;;;;;;;;;;6204133;23;19927;-96
2023/04/01 10:14:47;;;;;;;;;;;;;;;;;;6165072;23;19912;-94
2023/04/01 11:12:26;;;;;;;;;;;;;;;;;;6185627;23;19946;-87
2023/04/01 11:56:25;;;;;;;;;;;;;;;;;;6202292;23;19909;-88
2023/04/01 11:59:08;;;;;;;;;;;;;;;;;;6200816;23;19904;-89
2023/04/01 12:01:40;;;;;;;;;;;;;;;;;;6210081;23;19947;-87
2023/04/01 12:04:08;;;;;;;;;;;;;;;;;;6187518;23;19904;-87
2023/04/01 12:06:37;;;;;;;;;;;;;;;;;;6187266;23;19939;-88
2023/04/01 12:09:04;;;;;;;;;;;;;;;;;;6187354;23;19908;-88
2023/04/01 12:14:08;;;;;;;;;;;;;;;;;;6188573;23;19931;-88
2023/04/01 12:16:34;;;;;;;;;;;;;;;;;;6178702;23;19927;-88
2023/04/01 12:19:00;;;;;;;;;;;;;;;;;;6170420;23;19916;-87
2023/04/01 12:21:25;;;;;;;;;;;;;;;;;;6181511;23;19975;-88
2023/04/01 12:23:51;;;;;;;;;;;;;;;;;;6177381;23;19916;-88
2023/04/01 12:26:20;;;;;;;;;;;;;;;;;;6180752;23;19955;-87
2023/04/01 12:29:14;;;;;;;;;;;;;;;;;;6212977;23;19944;-88
2023/04/01 12:32:00;;;;;;;;;;;;;;;;;;6212470;23;19956;-88
2023/04/01 12:34:45;;;;;;;;;;;;;;;;;;6211518;23;19928;-88
2023/04/01 12:37:11;;;;;;;;;;;;;;;;;;6206167;23;19920;-89
2023/04/01 12:39:55;;;;;;;;;;;;;;;;;;6224308;23;19935;-87
2023/04/01 12:42:21;;;;;;;;;;;;;;;;;;6188214;23;19905;-87
2023/04/01 12:44:49;;;;;;;;;;;;;;;;;;6212965;23;19920;-87
2023/04/01 12:47:19;;;;;;;;;;;;;;;;;;6210170;23;19987;-87
2023/04/01 12:49:45;;;;;;;;;;;;;;;;;;6188156;23;19980;-87
2023/04/01 12:52:15;;;;;;;;;;;;;;;;;;6188193;23;19916;-87
2023/04/01 12:54:46;;;;;;;;;;;;;;;;;;6187439;23;19921;-87
2023/04/01 12:57:15;;;;;;;;;;;;;;;;;;6188125;23;19919;-87
2023/04/01 12:59:52;;;;;;;;;;;;;;;;;;6213493;23;19939;-87
2023/04/01 13:02:21;;;;;;;;;;;;;;;;;;6210438;23;19920;-86
2023/04/01 13:04:47;;;;;;;;;;;;;;;;;;6184543;23;19911;-87
2023/04/01 13:07:15;;;;;;;;;;;;;;;;;;6188363;23;19923;-87
2023/04/01 13:09:42;;;;;;;;;;;;;;;;;;6188965;23;19916;-93
2023/04/01 13:12:09;;;;;;;;;;;;;;;;;;6189303;23;19964;-94
2023/04/01 13:27:38;;;;;;;;;;;;;;;;;;6143801;23;19908;-94
2023/04/01 13:30:19;;;;;;;;;;;;;;;;;;6110408;23;19921;-95
2023/04/01 13:32:45;;;;;;;;;;;;;;;;;;6088848;23;19931;-94
2023/04/01 13:35:11;;;;;;;;;;;;;;;;;;6089721;23;19991;-94
2023/04/01 13:37:37;;;;;;;;;;;;;;;;;;6089452;23;19917;-95
2023/04/01 13:40:04;;;;;;;;;;;;;;;;;;6105805;23;19921;-94
2023/04/01 13:42:39;;;;;;;;;;;;;;;;;;6130283;23;19944;-95
2023/04/01 13:45:14;;;;;;;;;;;;;;;;;;6098517;23;19928;-96
2023/04/01 13:47:40;;;;;;;;;;;;;;;;;;6090210;23;19917;-95
2023/04/01 13:50:10;;;;;;;;;;;;;;;;;;6105594;23;19913;-95
2023/04/01 13:52:39;;;;;;;;;;;;;;;;;;6106041;23;19925;-93
2023/04/01 13:55:07;;;;;;;;;;;;;;;;;;6154528;23;19978;-96
2023/04/01 13:57:37;;;;;;;;;;;;;;;;;;6105531;23;19936;-94
2023/04/01 14:00:03;;;;;;;;;;;;;;;;;;6105596;23;19915;-95
2023/04/01 14:02:31;;;;;;;;;;;;;;;;;;6129648;23;19928;-94
2023/04/01 14:04:57;;;;;;;;;;;;;;;;;;6105365;23;19964;-94
2023/04/01 14:07:23;;;;;;;;;;;;;;;;;;6129279;23;19909;-96
2023/04/01 14:30:37;;;;;;;;;;;;;;;;;;6136466;23;19951;-94
2023/04/01 14:33:03;;;;;;;;;;;;;;;;;;6113248;23;19921;-95
2023/04/01 14:35:29;;;;;;;;;;;;;;;;;;6093829;23;19986;-93
2023/04/01 14:37:55;;;;;;;;;;;;;;;;;;6093869;23;19929;-93
2023/04/01 14:40:27;;;;;;;;;;;;;;;;;;6104502;23;19928;-94
2023/04/01 14:42:54;;;;;;;;;;;;;;;;;;6103601;23;19912;-93
2023/04/01 14:45:39;;;;;;;;;;;;;;;;;;6126930;23;19920;-94
2023/04/01 14:48:06;;;;;;;;;;;;;;;;;;6127825;23;19925;-94
2023/04/01 14:50:46;;;;;;;;;;;;;;;;;;6152059;23;19909;-93
2023/04/01 14:53:13;;;;;;;;;;;;;;;;;;6128584;23;19904;-95
2023/04/01 16:13:42;;;;;;;;;;;;;;;;;;6170821;23;19943;-91
2023/04/01 16:16:08;;;;;;;;;;;;;;;;;;6184192;23;19920;-93
2023/04/01 16:18:37;;;;;;;;;;;;;;;;;;6184482;23;19915;-93
2023/04/01 16:34:05;;;;;;;;;;;;;;;;;;6207516;23;19904;-92
2023/04/01 16:49:50;;;;;;;;;;;;;;;;;;6168205;23;19920;-94
2023/04/01 16:52:16;;;;;;;;;;;;;;;;;;6172272;23;19967;-93
2023/04/01 16:54:42;;;;;;;;;;;;;;;;;;6172909;23;20318;-95
2023/04/01 16:57:08;;;;;;;;;;;;;;;;;;6171541;23;19935;-95
2023/04/01 16:59:38;;;;;;;;;;;;;;;;;;6187359;23;19931;-94
2023/04/01 17:09:52;;;;;;;;;;;;;;;;;;6176710;23;19920;-93
2023/04/01 18:35:26;;;;;;;;;;;;;;;;;;6186244;23;19921;-90
2023/04/01 18:37:52;;;;;;;;;;;;;;;;;;6180639;23;19917;-93
2023/04/01 18:40:18;;;;;;;;;;;;;;;;;;6169624;23;19916;-93
2023/04/01 18:42:44;;;;;;;;;;;;;;;;;;6177130;23;19927;-92
2023/04/01 18:45:14;;;;;;;;;;;;;;;;;;6182987;23;19904;-93
2023/04/01 18:48:09;;;;;;;;;;;;;;;;;;6214570;23;19919;-93
2023/04/01 18:50:57;;;;;;;;;;;;;;;;;;6196996;23;19931;-93
2023/04/01 18:53:29;;;;;;;;;;;;;;;;;;6185985;23;19912;-93
2023/04/01 18:55:55;;;;;;;;;;;;;;;;;;6189235;23;19904;-94
2023/04/01 18:58:24;;;;;;;;;;;;;;;;;;6188992;23;19927;-94
2023/04/01 19:00:52;;;;;;;;;;;;;;;;;;6212113;23;19928;-93
2023/04/01 19:03:34;;;;;;;;;;;;;;;;;;6213172;23;19920;-92
2023/04/01 19:06:00;;;;;;;;;;;;;;;;;;6188944;23;19907;-92
2023/04/01 19:08:39;;;;;;;;;;;;;;;;;;6214813;23;19928;-92
2023/04/01 19:11:08;;;;;;;;;;;;;;;;;;6189136;23;19916;-93
2023/04/01 19:13:46;;;;;;;;;;;;;;;;;;6213973;23;19922;-93
2023/04/01 19:16:12;;;;;;;;;;;;;;;;;;6211221;23;19920;-93
2023/04/01 19:35:29;;;;;;;;;;;;;;;;;;6164915;23;19928;-94
2023/04/01 19:38:17;;;;;;;;;;;;;;;;;;6134071;23;19961;-93
2023/04/01 19:58:54;;;;;;;;;;;;;;;;;;6152012;23;19969;-93
2023/04/01 20:01:20;;;;;;;;;;;;;;;;;;6174275;23;19920;-93
2023/04/01 20:03:46;;;;;;;;;;;;;;;;;;6175498;23;19920;-93
2023/04/01 20:06:12;;;;;;;;;;;;;;;;;;6175497;23;19922;-93
2023/04/01 20:08:38;;;;;;;;;;;;;;;;;;6176009;23;19916;-93
2023/04/01 20:11:04;;;;;;;;;;;;;;;;;;6199954;23;19991;-93
2023/04/01 20:13:30;;;;;;;;;;;;;;;;;;6175435;23;19938;-91
2023/04/01 20:15:57;;;;;;;;;;;;;;;;;;6179232;23;19926;-93
2023/04/01 20:54:51;;;;;;;;;;;;;;;;;;6200580;23;19924;-91
2023/04/01 20:57:17;;;;;;;;;;;;;;;;;;6175912;23;19916;-91
2023/04/01 20:59:46;;;;;;;;;;;;;;;;;;6201861;23;19965;-91
2023/04/01 21:02:13;;;;;;;;;;;;;;;;;;6195052;23;19947;-91
2023/04/01 21:28:06;;;;;;;;;;;;;;;;;;6152298;23;19942;-89
2023/04/01 21:30:38;;;;;;;;;;;;;;;;;;6141354;23;19930;-90
2023/04/01 21:33:05;;;;;;;;;;;;;;;;;;6189985;23;19943;-90
2023/04/01 21:35:36;;;;;;;;;;;;;;;;;;6165426;23;19912;-90
2023/04/01 21:43:18;;;;;;;;;;;;;;;;;;6178694;23;19945;-89
2023/04/01 21:45:45;;;;;;;;;;;;;;;;;;6160048;23;19927;-89
2023/04/01 21:48:14;;;;;;;;;;;;;;;;;;6146826;23;19920;-90
2023/04/01 21:50:43;;;;;;;;;;;;;;;;;;6181480;23;19961;-90
2023/04/01 21:53:13;;;;;;;;;;;;;;;;;;6190293;23;19936;-89
2023/04/01 21:55:44;;;;;;;;;;;;;;;;;;6211672;23;19928;-89
2023/04/01 21:58:10;;;;;;;;;;;;;;;;;;6188309;23;19931;-89
2023/04/01 22:00:41;;;;;;;;;;;;;;;;;;6215414;23;19916;-90
2023/04/01 22:03:11;;;;;;;;;;;;;;;;;;6214281;23;19923;-90
2023/04/01 22:13:28;;;;;;;;;;;;;;;;;;6173544;23;19943;-90
2023/04/01 22:15:55;;;;;;;;;;;;;;;;;;6170051;23;19921;-90
2023/04/01 22:18:22;;;;;;;;;;;;;;;;;;6145633;23;19916;-90
2023/04/01 22:20:48;;;;;;;;;;;;;;;;;;6148374;23;19916;-90
2023/04/01 22:23:16;;;;;;;;;;;;;;;;;;6189515;23;19915;-90
2023/04/01 22:25:46;;;;;;;;;;;;;;;;;;6213856;23;19905;-90
2023/04/01 22:31:30;;;;;;;;;;;;;;;;;;6231621;23;19924;-91
2023/04/01 22:34:23;;;;;;;;;;;;;;;;;;6234792;23;19916;-91
2023/04/01 22:37:28;;;;;;;;;;;;;;;;;;6224999;23;19927;-91
2023/04/01 22:40:13;;;;;;;;;;;;;;;;;;6203174;23;19920;-91
2023/04/01 22:42:39;;;;;;;;;;;;;;;;;;6174963;23;19938;-91
2023/04/01 22:45:05;;;;;;;;;;;;;;;;;;6174352;23;19926;-91
2023/04/01 22:47:31;;;;;;;;;;;;;;;;;;6175012;23;19915;-90
2023/04/01 22:49:57;;;;;;;;;;;;;;;;;;6199519;23;19915;-91
2023/04/01 22:52:26;;;;;;;;;;;;;;;;;;6185147;23;19907;-91
2023/04/01 22:55:01;;;;;;;;;;;;;;;;;;6220094;23;19911;-90
2023/04/01 22:57:48;;;;;;;;;;;;;;;;;;6245172;23;19938;-91
2023/04/01 23:00:14;;;;;;;;;;;;;;;;;;6194532;23;19903;-91
2023/04/01 23:08:10;;;;;;;;;;;;;;;;;;6216944;23;19947;-91
2023/04/01 23:10:54;;;;;;;;;;;;;;;;;;6235549;23;19963;-90
2023/04/01 23:55:07;;;;;;;;;;;;;;;;;;6207381;23;19927;-90
2023/04/01 23:57:33;;;;;;;;;;;;;;;;;;6173873;23;19916;-91
2023/04/01 23:59:59;;;;;;;;;;;;;;;;;;6173762;23;19922;-90
